sensor_id;sensor_type;location;lat;lon;timestamp;temperature;humidity
21267;DHT22;10791;53.108;18.326;2022-10-18T00:01:04;10.70;99.90
21267;DHT22;10791;53.108;18.326;2022-10-18T00:06:17;10.60;99.90
21267;DHT22;10791;53.108;18.326;2022-10-18T00:11:20;10.60;99.90
21267;DHT22;10791;53.108;18.326;2022-10-18T00:16:24;10.60;99.90
21267;DHT22;10791;53.108;18.326;2022-10-18T00:21:27;10.60;99.90
21267;DHT22;10791;53.108;18.326;2022-10-18T00:26:30;10.60;99.90
21267;DHT22;10791;53.108;18.326;2022-10-18T00:31:35;10.60;99.90
21267;DHT22;10791;53.108;18.326;2022-10-18T00:36:39;10.60;99.90
21267;DHT22;10791;53.108;18.326;2022-10-18T00:41:43;10.60;99.90
21267;DHT22;10791;53.108;18.326;2022-10-18T00:46:48;10.60;99.90
21267;DHT22;10791;53.108;18.326;2022-10-18T00:51:57;10.60;99.90
21267;DHT22;10791;53.108;18.326;2022-10-18T00:57:02;10.60;99.90
21267;DHT22;10791;53.108;18.326;2022-10-18T01:02:06;10.50;99.90
21267;DHT22;10791;53.108;18.326;2022-10-18T01:07:24;10.40;99.90
21267;DHT22;10791;53.108;18.326;2022-10-18T01:12:56;10.40;99.90
21267;DHT22;10791;53.108;18.326;2022-10-18T01:23:39;10.20;99.90
21267;DHT22;10791;53.108;18.326;2022-10-18T01:34:16;10.10;99.90
21267;DHT22;10791;53.108;18.326;2022-10-18T01:39:30;10.00;99.90
21267;DHT22;10791;53.108;18.326;2022-10-18T01:44:35;10.00;99.90
21267;DHT22;10791;53.108;18.326;2022-10-18T01:49:40;10.00;99.90
21267;DHT22;10791;53.108;18.326;2022-10-18T01:54:45;9.90;99.90
21267;DHT22;10791;53.108;18.326;2022-10-18T02:05:08;9.90;99.90
21267;DHT22;10791;53.108;18.326;2022-10-18T02:10:28;9.90;99.90
21267;DHT22;10791;53.108;18.326;2022-10-18T02:15:37;9.80;99.90
21267;DHT22;10791;53.108;18.326;2022-10-18T02:20:41;9.80;99.90
21267;DHT22;10791;53.108;18.326;2022-10-18T02:25:44;9.70;99.90
21267;DHT22;10791;53.108;18.326;2022-10-18T02:36:32;9.70;99.90
21267;DHT22;10791;53.108;18.326;2022-10-18T02:41:34;9.70;99.90
21267;DHT22;10791;53.108;18.326;2022-10-18T02:46:38;9.60;99.90
21267;DHT22;10791;53.108;18.326;2022-10-18T02:51:41;9.70;99.90
21267;DHT22;10791;53.108;18.326;2022-10-18T02:56:45;9.60;99.90
21267;DHT22;10791;53.108;18.326;2022-10-18T03:01:48;9.60;99.90
21267;DHT22;10791;53.108;18.326;2022-10-18T03:06:51;9.60;99.90
21267;DHT22;10791;53.108;18.326;2022-10-18T03:11:54;9.60;99.90
21267;DHT22;10791;53.108;18.326;2022-10-18T03:16:58;9.60;99.90
21267;DHT22;10791;53.108;18.326;2022-10-18T03:22:01;9.60;99.90
21267;DHT22;10791;53.108;18.326;2022-10-18T03:27:04;9.60;99.90
21267;DHT22;10791;53.108;18.326;2022-10-18T03:32:08;9.70;99.90
21267;DHT22;10791;53.108;18.326;2022-10-18T03:37:11;9.80;99.90
21267;DHT22;10791;53.108;18.326;2022-10-18T03:42:14;9.70;99.90
21267;DHT22;10791;53.108;18.326;2022-10-18T03:47:18;9.80;99.90
21267;DHT22;10791;53.108;18.326;2022-10-18T03:52:21;9.80;99.90
21267;DHT22;10791;53.108;18.326;2022-10-18T03:57:24;9.80;99.90
21267;DHT22;10791;53.108;18.326;2022-10-18T04:02:27;9.90;99.90
21267;DHT22;10791;53.108;18.326;2022-10-18T04:07:31;9.90;99.90
21267;DHT22;10791;53.108;18.326;2022-10-18T04:12:34;9.90;99.90
21267;DHT22;10791;53.108;18.326;2022-10-18T04:17:37;9.80;99.90
21267;DHT22;10791;53.108;18.326;2022-10-18T04:22:41;9.90;99.90
21267;DHT22;10791;53.108;18.326;2022-10-18T04:27:44;9.90;99.90
21267;DHT22;10791;53.108;18.326;2022-10-18T04:32:47;10.00;99.90
21267;DHT22;10791;53.108;18.326;2022-10-18T04:37:51;10.10;99.90
21267;DHT22;10791;53.108;18.326;2022-10-18T04:42:54;10.20;99.90
21267;DHT22;10791;53.108;18.326;2022-10-18T04:47:58;10.40;99.90
21267;DHT22;10791;53.108;18.326;2022-10-18T04:53:01;10.50;99.90
21267;DHT22;10791;53.108;18.326;2022-10-18T04:58:04;10.60;99.90
21267;DHT22;10791;53.108;18.326;2022-10-18T05:03:08;10.70;99.90
21267;DHT22;10791;53.108;18.326;2022-10-18T05:08:12;10.80;99.90
21267;DHT22;10791;53.108;18.326;2022-10-18T05:13:15;10.80;99.90
21267;DHT22;10791;53.108;18.326;2022-10-18T05:18:19;11.00;99.90
21267;DHT22;10791;53.108;18.326;2022-10-18T05:23:22;11.10;99.90
21267;DHT22;10791;53.108;18.326;2022-10-18T05:28:26;11.40;99.90
21267;DHT22;10791;53.108;18.326;2022-10-18T05:33:45;11.70;99.90
21267;DHT22;10791;53.108;18.326;2022-10-18T05:38:48;12.00;99.90
21267;DHT22;10791;53.108;18.326;2022-10-18T05:43:52;12.10;99.90
21267;DHT22;10791;53.108;18.326;2022-10-18T05:48:55;12.10;99.90
21267;DHT22;10791;53.108;18.326;2022-10-18T05:53:58;12.20;99.90
21267;DHT22;10791;53.108;18.326;2022-10-18T05:59:02;12.30;99.90
21267;DHT22;10791;53.108;18.326;2022-10-18T06:04:10;12.40;99.90
21267;DHT22;10791;53.108;18.326;2022-10-18T06:09:13;12.70;99.90
21267;DHT22;10791;53.108;18.326;2022-10-18T06:14:16;12.80;99.90
21267;DHT22;10791;53.108;18.326;2022-10-18T06:19:20;13.00;99.90
21267;DHT22;10791;53.108;18.326;2022-10-18T06:24:23;13.10;99.90
21267;DHT22;10791;53.108;18.326;2022-10-18T06:29:26;13.10;99.90
21267;DHT22;10791;53.108;18.326;2022-10-18T06:34:30;13.20;99.90
21267;DHT22;10791;53.108;18.326;2022-10-18T06:39:33;13.20;99.90
21267;DHT22;10791;53.108;18.326;2022-10-18T06:44:37;13.20;99.90
21267;DHT22;10791;53.108;18.326;2022-10-18T06:49:40;13.20;99.90
21267;DHT22;10791;53.108;18.326;2022-10-18T06:54:43;13.20;99.90
21267;DHT22;10791;53.108;18.326;2022-10-18T06:59:46;13.30;99.90
21267;DHT22;10791;53.108;18.326;2022-10-18T07:04:51;13.50;99.90
21267;DHT22;10791;53.108;18.326;2022-10-18T07:09:55;13.50;99.90
21267;DHT22;10791;53.108;18.326;2022-10-18T07:14:59;13.60;99.90
21267;DHT22;10791;53.108;18.326;2022-10-18T07:20:05;13.70;99.90
21267;DHT22;10791;53.108;18.326;2022-10-18T07:25:08;13.80;99.90
21267;DHT22;10791;53.108;18.326;2022-10-18T07:30:11;13.90;99.90
21267;DHT22;10791;53.108;18.326;2022-10-18T07:35:14;14.00;99.90
21267;DHT22;10791;53.108;18.326;2022-10-18T07:40:17;14.00;99.90
21267;DHT22;10791;53.108;18.326;2022-10-18T07:45:21;14.10;99.90
21267;DHT22;10791;53.108;18.326;2022-10-18T07:50:24;14.20;99.90
21267;DHT22;10791;53.108;18.326;2022-10-18T07:55:27;14.20;99.90
21267;DHT22;10791;53.108;18.326;2022-10-18T08:00:30;14.30;99.90
21267;DHT22;10791;53.108;18.326;2022-10-18T08:05:34;14.50;99.90
21267;DHT22;10791;53.108;18.326;2022-10-18T08:10:37;14.70;99.90
21267;DHT22;10791;53.108;18.326;2022-10-18T08:15:40;14.80;99.90
21267;DHT22;10791;53.108;18.326;2022-10-18T08:20:44;14.90;99.90
21267;DHT22;10791;53.108;18.326;2022-10-18T08:25:48;15.00;99.90
21267;DHT22;10791;53.108;18.326;2022-10-18T08:30:51;15.10;99.90
21267;DHT22;10791;53.108;18.326;2022-10-18T08:35:56;15.20;99.90
21267;DHT22;10791;53.108;18.326;2022-10-18T08:41:05;15.30;99.90
21267;DHT22;10791;53.108;18.326;2022-10-18T08:46:15;15.30;99.90
21267;DHT22;10791;53.108;18.326;2022-10-18T08:51:48;15.40;99.90
21267;DHT22;10791;53.108;18.326;2022-10-18T08:56:58;15.40;99.90
21267;DHT22;10791;53.108;18.326;2022-10-18T09:02:30;15.60;99.90
21267;DHT22;10791;53.108;18.326;2022-10-18T09:34:44;15.90;99.90
21267;DHT22;10791;53.108;18.326;2022-10-18T09:39:51;15.90;99.90
21267;DHT22;10791;53.108;18.326;2022-10-18T09:45:02;16.00;99.90
21267;DHT22;10791;53.108;18.326;2022-10-18T09:50:26;16.00;99.90
21267;DHT22;10791;53.108;18.326;2022-10-18T09:55:36;16.00;99.90
21267;DHT22;10791;53.108;18.326;2022-10-18T10:00:46;16.00;99.90
21267;DHT22;10791;53.108;18.326;2022-10-18T10:11:30;16.10;99.90
21267;DHT22;10791;53.108;18.326;2022-10-18T10:16:42;16.10;99.90
21267;DHT22;10791;53.108;18.326;2022-10-18T10:21:48;16.10;99.90
21267;DHT22;10791;53.108;18.326;2022-10-18T10:26:58;16.20;99.90
21267;DHT22;10791;53.108;18.326;2022-10-18T10:32:03;16.20;99.90
21267;DHT22;10791;53.108;18.326;2022-10-18T10:37:23;16.20;99.90
21267;DHT22;10791;53.108;18.326;2022-10-18T10:42:28;16.10;99.90
21267;DHT22;10791;53.108;18.326;2022-10-18T10:47:33;16.00;99.90
21267;DHT22;10791;53.108;18.326;2022-10-18T10:52:39;16.00;99.90
21267;DHT22;10791;53.108;18.326;2022-10-18T10:57:47;16.00;99.90
21267;DHT22;10791;53.108;18.326;2022-10-18T11:03:14;15.90;99.90
21267;DHT22;10791;53.108;18.326;2022-10-18T11:08:39;15.90;99.90
21267;DHT22;10791;53.108;18.326;2022-10-18T11:14:16;15.90;99.90
21267;DHT22;10791;53.108;18.326;2022-10-18T11:26:35;15.80;99.90
21267;DHT22;10791;53.108;18.326;2022-10-18T11:36:58;15.50;99.90
21267;DHT22;10791;53.108;18.326;2022-10-18T11:47:44;15.40;99.90
21267;DHT22;10791;53.108;18.326;2022-10-18T12:14:35;15.50;99.90
21267;DHT22;10791;53.108;18.326;2022-10-18T12:19:39;15.50;99.90
21267;DHT22;10791;53.108;18.326;2022-10-18T12:24:44;15.50;99.90
21267;DHT22;10791;53.108;18.326;2022-10-18T12:29:58;15.50;99.90
21267;DHT22;10791;53.108;18.326;2022-10-18T12:35:13;15.60;99.90
21267;DHT22;10791;53.108;18.326;2022-10-18T12:40:24;15.60;99.90
21267;DHT22;10791;53.108;18.326;2022-10-18T12:45:32;15.60;99.90
21267;DHT22;10791;53.108;18.326;2022-10-18T12:50:43;15.60;99.90
21267;DHT22;10791;53.108;18.326;2022-10-18T12:55:48;15.60;99.90
21267;DHT22;10791;53.108;18.326;2022-10-18T13:00:55;15.60;99.90
21267;DHT22;10791;53.108;18.326;2022-10-18T13:06:00;15.60;99.90
21267;DHT22;10791;53.108;18.326;2022-10-18T13:37:57;15.20;99.90
21267;DHT22;10791;53.108;18.326;2022-10-18T13:43:46;15.20;99.90
21267;DHT22;10791;53.108;18.326;2022-10-18T14:21:33;15.00;99.90
21267;DHT22;10791;53.108;18.326;2022-10-18T14:26:39;15.00;99.90
21267;DHT22;10791;53.108;18.326;2022-10-18T14:31:52;14.90;99.90
21267;DHT22;10791;53.108;18.326;2022-10-18T14:36:56;14.90;99.90
21267;DHT22;10791;53.108;18.326;2022-10-18T14:42:00;14.90;99.90
21267;DHT22;10791;53.108;18.326;2022-10-18T14:47:25;14.90;99.90
21267;DHT22;10791;53.108;18.326;2022-10-18T14:52:30;14.80;99.90
21267;DHT22;10791;53.108;18.326;2022-10-18T14:57:37;14.90;99.90
21267;DHT22;10791;53.108;18.326;2022-10-18T15:02:41;14.80;99.90
21267;DHT22;10791;53.108;18.326;2022-10-18T15:07:44;14.80;99.90
21267;DHT22;10791;53.108;18.326;2022-10-18T15:12:48;14.80;99.90
21267;DHT22;10791;53.108;18.326;2022-10-18T15:18:20;14.80;99.90
21267;DHT22;10791;53.108;18.326;2022-10-18T15:23:27;14.70;99.90
21267;DHT22;10791;53.108;18.326;2022-10-18T15:28:37;14.70;99.90
21267;DHT22;10791;53.108;18.326;2022-10-18T15:33:42;14.70;99.90
21267;DHT22;10791;53.108;18.326;2022-10-18T15:38:46;14.60;99.90
21267;DHT22;10791;53.108;18.326;2022-10-18T15:44:04;14.60;99.90
21267;DHT22;10791;53.108;18.326;2022-10-18T15:54:31;14.60;99.90
21267;DHT22;10791;53.108;18.326;2022-10-18T15:59:35;14.60;99.90
21267;DHT22;10791;53.108;18.326;2022-10-18T16:04:40;14.60;99.90
21267;DHT22;10791;53.108;18.326;2022-10-18T16:09:44;14.50;99.90
21267;DHT22;10791;53.108;18.326;2022-10-18T16:14:47;14.50;99.90
21267;DHT22;10791;53.108;18.326;2022-10-18T16:19:50;14.50;99.90
21267;DHT22;10791;53.108;18.326;2022-10-18T16:24:53;14.40;99.90
21267;DHT22;10791;53.108;18.326;2022-10-18T16:29:57;14.40;99.90
21267;DHT22;10791;53.108;18.326;2022-10-18T16:35:01;14.30;99.90
21267;DHT22;10791;53.108;18.326;2022-10-18T16:40:24;14.30;99.90
21267;DHT22;10791;53.108;18.326;2022-10-18T16:45:27;14.30;99.90
21267;DHT22;10791;53.108;18.326;2022-10-18T16:50:31;14.30;99.90
21267;DHT22;10791;53.108;18.326;2022-10-18T16:55:38;14.30;99.90
21267;DHT22;10791;53.108;18.326;2022-10-18T17:00:42;14.30;99.90
21267;DHT22;10791;53.108;18.326;2022-10-18T17:05:46;14.30;99.90
21267;DHT22;10791;53.108;18.326;2022-10-18T17:10:53;14.30;99.90
21267;DHT22;10791;53.108;18.326;2022-10-18T17:15:58;14.30;99.90
21267;DHT22;10791;53.108;18.326;2022-10-18T17:21:03;14.30;99.90
21267;DHT22;10791;53.108;18.326;2022-10-18T17:26:12;14.30;99.90
21267;DHT22;10791;53.108;18.326;2022-10-18T17:31:32;14.30;99.90
21267;DHT22;10791;53.108;18.326;2022-10-18T17:36:36;14.20;99.90
21267;DHT22;10791;53.108;18.326;2022-10-18T17:41:39;14.20;99.90
21267;DHT22;10791;53.108;18.326;2022-10-18T17:46:45;14.20;99.90
21267;DHT22;10791;53.108;18.326;2022-10-18T17:51:55;14.20;99.90
21267;DHT22;10791;53.108;18.326;2022-10-18T17:57:00;14.10;99.90
21267;DHT22;10791;53.108;18.326;2022-10-18T18:02:07;14.10;99.90
21267;DHT22;10791;53.108;18.326;2022-10-18T18:07:11;14.00;99.90
21267;DHT22;10791;53.108;18.326;2022-10-18T18:12:18;14.00;99.90
21267;DHT22;10791;53.108;18.326;2022-10-18T18:17:22;14.00;99.90
21267;DHT22;10791;53.108;18.326;2022-10-18T18:22:37;14.00;99.90
21267;DHT22;10791;53.108;18.326;2022-10-18T18:27:44;14.00;99.90
21267;DHT22;10791;53.108;18.326;2022-10-18T18:32:49;13.80;99.90
21267;DHT22;10791;53.108;18.326;2022-10-18T18:37:58;13.80;99.90
21267;DHT22;10791;53.108;18.326;2022-10-18T18:43:05;13.70;99.90
21267;DHT22;10791;53.108;18.326;2022-10-18T18:48:26;13.70;99.90
21267;DHT22;10791;53.108;18.326;2022-10-18T18:53:33;13.70;99.90
21267;DHT22;10791;53.108;18.326;2022-10-18T18:58:37;13.60;99.90
21267;DHT22;10791;53.108;18.326;2022-10-18T19:03:45;13.50;99.90
21267;DHT22;10791;53.108;18.326;2022-10-18T19:08:51;13.50;99.90
21267;DHT22;10791;53.108;18.326;2022-10-18T19:14:10;13.40;99.90
21267;DHT22;10791;53.108;18.326;2022-10-18T19:19:19;13.20;99.90
21267;DHT22;10791;53.108;18.326;2022-10-18T19:24:27;13.00;99.90
21267;DHT22;10791;53.108;18.326;2022-10-18T19:29:34;12.90;99.90
21267;DHT22;10791;53.108;18.326;2022-10-18T19:34:43;12.90;99.90
21267;DHT22;10791;53.108;18.326;2022-10-18T19:39:50;12.70;99.90
21267;DHT22;10791;53.108;18.326;2022-10-18T19:44:57;12.70;99.90
21267;DHT22;10791;53.108;18.326;2022-10-18T19:50:02;12.50;99.90
21267;DHT22;10791;53.108;18.326;2022-10-18T19:55:08;12.50;99.90
21267;DHT22;10791;53.108;18.326;2022-10-18T20:00:14;12.30;99.90
21267;DHT22;10791;53.108;18.326;2022-10-18T20:05:22;12.20;99.90
21267;DHT22;10791;53.108;18.326;2022-10-18T20:10:27;12.10;99.90
21267;DHT22;10791;53.108;18.326;2022-10-18T20:15:33;12.00;99.90
21267;DHT22;10791;53.108;18.326;2022-10-18T20:20:37;11.90;99.90
21267;DHT22;10791;53.108;18.326;2022-10-18T20:26:18;11.80;99.90
21267;DHT22;10791;53.108;18.326;2022-10-18T20:31:28;11.70;99.90
21267;DHT22;10791;53.108;18.326;2022-10-18T20:36:34;11.60;99.90
21267;DHT22;10791;53.108;18.326;2022-10-18T20:41:38;11.60;99.90
21267;DHT22;10791;53.108;18.326;2022-10-18T20:46:46;11.50;99.90
21267;DHT22;10791;53.108;18.326;2022-10-18T20:51:50;11.40;99.90
21267;DHT22;10791;53.108;18.326;2022-10-18T20:56:55;11.30;99.90
21267;DHT22;10791;53.108;18.326;2022-10-18T21:01:58;11.10;99.90
21267;DHT22;10791;53.108;18.326;2022-10-18T21:07:02;11.00;99.90
21267;DHT22;10791;53.108;18.326;2022-10-18T21:12:06;11.00;99.90
21267;DHT22;10791;53.108;18.326;2022-10-18T21:17:09;10.90;99.90
21267;DHT22;10791;53.108;18.326;2022-10-18T21:22:13;10.90;99.90
21267;DHT22;10791;53.108;18.326;2022-10-18T21:27:16;10.80;99.90
21267;DHT22;10791;53.108;18.326;2022-10-18T21:32:20;10.80;99.90
21267;DHT22;10791;53.108;18.326;2022-10-18T21:37:23;10.70;99.90
21267;DHT22;10791;53.108;18.326;2022-10-18T21:42:27;10.70;99.90
21267;DHT22;10791;53.108;18.326;2022-10-18T21:47:31;10.70;99.90
21267;DHT22;10791;53.108;18.326;2022-10-18T21:52:34;10.70;99.90
21267;DHT22;10791;53.108;18.326;2022-10-18T21:57:37;10.70;99.90
21267;DHT22;10791;53.108;18.326;2022-10-18T22:02:41;10.60;99.90
21267;DHT22;10791;53.108;18.326;2022-10-18T22:07:44;10.60;99.90
21267;DHT22;10791;53.108;18.326;2022-10-18T22:12:47;10.60;99.90
21267;DHT22;10791;53.108;18.326;2022-10-18T22:17:50;10.70;99.90
21267;DHT22;10791;53.108;18.326;2022-10-18T22:22:53;10.70;99.90
21267;DHT22;10791;53.108;18.326;2022-10-18T22:27:57;10.70;99.90
21267;DHT22;10791;53.108;18.326;2022-10-18T22:33:00;10.80;99.90
21267;DHT22;10791;53.108;18.326;2022-10-18T22:38:03;10.80;99.90
21267;DHT22;10791;53.108;18.326;2022-10-18T22:43:07;10.80;99.90
21267;DHT22;10791;53.108;18.326;2022-10-18T22:48:10;10.90;99.90
21267;DHT22;10791;53.108;18.326;2022-10-18T22:53:13;10.90;99.90
21267;DHT22;10791;53.108;18.326;2022-10-18T22:58:17;11.00;99.90
21267;DHT22;10791;53.108;18.326;2022-10-18T23:03:21;11.00;99.90
21267;DHT22;10791;53.108;18.326;2022-10-18T23:08:24;11.00;99.90
21267;DHT22;10791;53.108;18.326;2022-10-18T23:13:28;11.00;99.90
21267;DHT22;10791;53.108;18.326;2022-10-18T23:18:32;11.10;99.90
21267;DHT22;10791;53.108;18.326;2022-10-18T23:23:37;11.10;99.90
21267;DHT22;10791;53.108;18.326;2022-10-18T23:28:42;11.10;99.90
21267;DHT22;10791;53.108;18.326;2022-10-18T23:33:48;11.10;99.90
21267;DHT22;10791;53.108;18.326;2022-10-18T23:38:53;11.00;99.90
21267;DHT22;10791;53.108;18.326;2022-10-18T23:43:56;11.00;99.90
21267;DHT22;10791;53.108;18.326;2022-10-18T23:48:59;10.80;99.90
21267;DHT22;10791;53.108;18.326;2022-10-18T23:54:03;10.80;99.90
21267;DHT22;10791;53.108;18.326;2022-10-18T23:59:06;10.60;99.90
